Monday, April 21, 2014
04:34 UTC
  |  Log In   |  Register Free
Airport Search:

Kingsville Nas Airport
(KNQI)

FAA data valid effective April 3, 2014 until May 29, 2014 (unless otherwise noted).

 
 
 
 
 
 
 
 
 
 
 
 
 
 

Current Aviation Weather for Kingsville Nas Airport (KNQI)

The most recent METAR observation for KNQI was updated at: 0356 UTC
METAR Summary (Translated METAR)
KNQI
210356Z AUTO 14010KT 10SM -RA BKN060 22/18 A3006 RMK AO2 SLP175 P0000 T02170183 $
KALI
(18.2 nm NW from KNQI)
210353Z AUTO 14008KT 10SM OVC060 21/18 A3006 RMK AO2 SLP175 T02110178
TAF Summary (Translated TAF)
KNQI
2023/2123 13018G25KT 9999 VCSH BKN035 QNH3000INS FM210200 12012KT 9999 SCT015 BKN070 QNH3000INS FM210600 15005KT 4800 BR OVC010 QNH3003INS FM211400 16012KT 9999 SCT025 BKN035 QNH3000INS AUTOMATED SENSOR METWATCH 2103 TIL 2112 T19/2112Z T27/2119Z FN00061
KALI
(18.2 nm NW from KNQI)
210101Z 2101/2124 14012KT P6SM BKN030 OVC040 TEMPO 2101/2103 SCT030 OVC040 FM210600 14004KT 3SM BR OVC010 FM211400 17012KT P6SM SCT025 BKN035 FM212000 15012G18KT P6SM FEW030 SCT150
  Airport Weather Conditions for KNQI

 Current Weather at NQI
71° F
Light Rain
Southeast winds at 11.5 mph
NQI NOAA Radar

Pressure: 30.06 in
Humidity: 81%
Wind: Southeast at 11.5 MPH (10 KT)
Dew Point: 64.9°F
Visibility: 10.00 mi


Airport Weather Forecast for KNQI

Translated METAR and TAF for KNQI
Translated METAR for KNQI (0434 UTC 21 April 2014)
found at http://aviationweather.gov/adds/metars/
 
METAR text: KNQI 210356Z AUTO 14010KT 10SM -RA BKN060 22/18 A3006 RMK AO2 SLP175 P0000 T02170183 $
Conditions at: KNQI (KINGSVILLE NAS , TX, US) observed 0356 UTC 21 April 2014
Temperature: 21.7°C (71°F)
Dewpoint: 18.3°C (65°F) [RH = 81%]
Pressure (altimeter): 30.06 inches Hg (1018.0 mb)
[Sea-level pressure: 1017.5 mb]
Winds: from the SE (140 degrees) at 12 MPH (10 knots; 5.2 m/s)
Visibility: 10 or more miles (16+ km)
Ceiling: 6000 feet AGL
Clouds: broken clouds at 6000 feet AGL
Weather: -RA  (light rain)
SOME DATA ABOVE MAY BE INACCURATE!!!
"$" is an indication the sensor requires maintenance
Translated TAF for KNQI
Forecast for: KNQI (KINGSVILLE NAS , TX, US)
TAF Text: TAF KNQI 2023/2123 13018G25KT 9999 VCSH BKN035 QNH3000INS
Forecast period: 2300 UTC 20 April 2014 to 0200 UTC 21 April 2014
Forecast type: FROM: standard forecast or significant change
Winds: from the SE (130 degrees) at 21 MPH (18 knots; 9.4 m/s)
gusting to 29 MPH (25 knots; 13.0 m/s)
Visibility: 6 or more miles (10+ km)
Ceiling: 3500 feet AGL
Clouds: broken clouds at 3500 feet AGL
Weather: VCSH  (showers in vicinity)
TAF Text: FM210200 12012KT 9999 SCT015 BKN070 QNH3000INS
Forecast period: 0200 to 0600 UTC 21 April 2014
Forecast type: FROM: standard forecast or significant change
Winds: from the ESE (120 degrees) at 14 MPH (12 knots; 6.2 m/s)
Visibility: 6 or more miles (10+ km)
Ceiling: 7000 feet AGL
Clouds: scattered clouds at 1500 feet AGL
broken clouds at 7000 feet AGL
Weather: no significant weather forecast for this period
TAF Text: FM210600 15005KT 4800 BR OVC010 QNH3003INS
Forecast period: 0600 to 1400 UTC 21 April 2014
Forecast type: FROM: standard forecast or significant change
Winds: from the SSE (150 degrees) at 6 MPH (5 knots; 2.6 m/s)
Visibility: 2.98 miles (4.80 km)
Ceiling: 1000 feet AGL
Clouds: overcast cloud deck at 1000 feet AGL
Weather: BR  (mist)
TAF Text: FM211400 16012KT 9999 SCT025 BKN035 QNH3000INS AUTOMATED SENSOR METWATCH 2103 TIL 2112 T19/2112Z T27/2119Z FN00061
Forecast period: 1400 to 2300 UTC 21 April 2014
Forecast type: FROM: standard forecast or significant change
Winds: from the SSE (160 degrees) at 14 MPH (12 knots; 6.2 m/s)
Visibility: 6 or more miles (10+ km)
Ceiling: 3500 feet AGL
Clouds: scattered clouds at 2500 feet AGL
broken clouds at 3500 feet AGL
Weather: no significant weather forecast for this period

Find All Airport Services Find A Hotel Find A Rental Car Find A Golf Course Find A Restaurant $100 Hamburger



FBO's on the Field
FBO Company Facility Photos Services Transportation Aviation Fuel Prices: Prices include tax
Catering Weather Repair Courtesy Rental Type 100LL JetA JetA+ MOGAS 8087
 
Add another FBO Facility Photos Catering Weather Repair Courtesy Rental Type 100LL JetA JetA+ MOGAS 8087
Services Transportation Aviation Fuel Prices: Prices include tax
There are no FBO's currently reporting fuel at NQI. List your FBO now


GlobalAir.com Airport Resource Center model-print
model-print
model-print
model-print